Time;durP1;ratioP1;P1;durP2;ratioP2;P2;SDS_P1;SDS_P2;PMS_P1;PMS_P2;Temp;Humidity;BMP_temperature;BMP_pressure;BME280_temperature;BME280_humidity;BME280_pressure;Samples;Min_cycle;Max_cycle;Signal;HPM_P1;HPM_P2
2024/01/11 00:02:23;;;;;;;24.88;13.20;;;;;;;;;;8234840;28;20046;-60
2024/01/11 00:06:23;;;;;;;24.25;12.23;;;;;;;;;;8229526;28;20033;-60
2024/01/11 00:10:23;;;;;;;24.45;12.18;;;;;;;;;;8231197;28;20023;-60
2024/01/11 00:14:23;;;;;;;23.92;12.32;;;;;;;;;;8230863;28;20026;-61
2024/01/11 00:18:23;;;;;;;28.23;14.30;;;;;;;;;;8229085;28;20030;-60
2024/01/11 00:22:23;;;;;;;29.02;12.52;;;;;;;;;;8231545;28;20535;-60
2024/01/11 00:26:24;;;;;;;24.65;12.82;;;;;;;;;;8230193;28;20033;-59
2024/01/11 00:30:24;;;;;;;26.67;13.38;;;;;;;;;;8223808;28;20563;-59
2024/01/11 00:34:24;;;;;;;24.15;12.40;;;;;;;;;;8218895;28;20087;-58
2024/01/11 00:38:24;;;;;;;25.08;13.95;;;;;;;;;;8222743;28;20030;-59
2024/01/11 00:42:24;;;;;;;25.30;12.68;;;;;;;;;;8215347;28;20088;-59
2024/01/11 00:46:25;;;;;;;25.23;11.93;;;;;;;;;;8214565;28;20034;-60
2024/01/11 00:50:25;;;;;;;25.05;12.63;;;;;;;;;;8223812;28;20033;-59
2024/01/11 00:54:25;;;;;;;29.42;12.88;;;;;;;;;;8220859;28;20022;-60
2024/01/11 00:58:25;;;;;;;26.15;12.73;;;;;;;;;;8212068;28;20030;-59
2024/01/11 01:02:25;;;;;;;27.85;12.27;;;;;;;;;;8212619;28;20034;-59
2024/01/11 01:06:26;;;;;;;28.23;13.52;;;;;;;;;;8217606;28;20093;-60
2024/01/11 01:10:26;;;;;;;29.98;13.98;;;;;;;;;;8221228;28;20038;-59
2024/01/11 01:14:26;;;;;;;27.35;13.35;;;;;;;;;;8213980;28;20030;-59
2024/01/11 01:18:27;;;;;;;22.30;12.37;;;;;;;;;;8218014;28;20129;-59
2024/01/11 01:22:27;;;;;;;27.20;13.38;;;;;;;;;;8219950;28;20292;-59
2024/01/11 01:26:27;;;;;;;25.50;12.40;;;;;;;;;;8219335;28;20029;-60
2024/01/11 01:30:27;;;;;;;25.15;13.07;;;;;;;;;;8213224;28;20046;-59
2024/01/11 01:34:28;;;;;;;26.67;13.70;;;;;;;;;;8225804;28;20053;-60
2024/01/11 01:38:30;;;;;;;27.83;13.25;;;;;;;;;;8224230;28;20334;-60
2024/01/11 01:42:30;;;;;;;28.45;13.73;;;;;;;;;;8229537;28;20018;-60
2024/01/11 01:46:31;;;;;;;28.17;14.70;;;;;;;;;;8238695;28;20545;-60
2024/01/11 01:50:31;;;;;;;28.00;14.68;;;;;;;;;;8232393;28;20034;-60
2024/01/11 01:54:32;;;;;;;28.13;14.32;;;;;;;;;;8229446;28;20376;-60
2024/01/11 01:58:33;;;;;;;30.48;13.65;;;;;;;;;;8231666;28;20018;-60
2024/01/11 02:02:34;;;;;;;26.25;14.43;;;;;;;;;;8227948;28;20054;-61
2024/01/11 02:06:34;;;;;;;28.33;14.07;;;;;;;;;;8229185;28;20037;-60
2024/01/11 02:10:35;;;;;;;27.20;14.43;;;;;;;;;;8227620;28;20026;-60
2024/01/11 02:14:36;;;;;;;28.08;14.88;;;;;;;;;;8230891;28;20022;-60
2024/01/11 02:18:37;;;;;;;26.67;13.73;;;;;;;;;;8231217;28;20363;-61
2024/01/11 02:22:38;;;;;;;25.30;13.00;;;;;;;;;;8224099;28;20049;-62
2024/01/11 02:26:57;;;;;;;26.10;13.25;;;;;;;;;;8219943;28;20029;-60
2024/01/11 02:30:57;;;;;;;25.02;12.60;;;;;;;;;;8216467;28;21232;-60
2024/01/11 02:34:57;;;;;;;28.15;13.88;;;;;;;;;;8223023;28;20033;-60
2024/01/11 02:38:58;;;;;;;27.42;14.05;;;;;;;;;;8219244;28;20026;-60
2024/01/11 02:43:06;;;;;;;23.65;12.80;;;;;;;;;;8219541;28;20414;-58
2024/01/11 02:47:06;;;;;;;27.58;13.57;;;;;;;;;;8219271;28;20117;-59
2024/01/11 02:51:07;;;;;;;28.77;13.00;;;;;;;;;;8222423;28;20046;-60
2024/01/11 02:55:07;;;;;;;27.70;13.57;;;;;;;;;;8231138;28;20018;-61
2024/01/11 02:59:07;;;;;;;31.58;15.02;;;;;;;;;;8226201;28;20026;-61
2024/01/11 03:03:07;;;;;;;25.10;13.35;;;;;;;;;;8225217;28;20046;-61
2024/01/11 03:07:08;;;;;;;27.05;12.75;;;;;;;;;;8232466;28;20018;-60
2024/01/11 03:11:08;;;;;;;26.60;12.98;;;;;;;;;;8224045;28;20058;-60
2024/01/11 03:15:08;;;;;;;29.55;14.35;;;;;;;;;;8225299;28;20030;-61
2024/01/11 03:19:09;;;;;;;30.38;15.10;;;;;;;;;;8226280;28;21957;-61
2024/01/11 03:23:09;;;;;;;33.35;13.65;;;;;;;;;;8226754;28;20026;-60
2024/01/11 03:27:09;;;;;;;31.17;14.85;;;;;;;;;;8227504;28;20270;-61
2024/01/11 03:31:09;;;;;;;30.55;13.60;;;;;;;;;;8225805;28;21780;-61
2024/01/11 03:35:10;;;;;;;27.63;13.50;;;;;;;;;;8224765;28;20378;-59
2024/01/11 03:39:10;;;;;;;29.08;14.88;;;;;;;;;;8230062;28;20032;-59
2024/01/11 03:43:10;;;;;;;28.67;14.18;;;;;;;;;;8217750;28;20034;-58
2024/01/11 03:47:10;;;;;;;29.00;14.57;;;;;;;;;;8218182;28;20048;-58
2024/01/11 03:51:10;;;;;;;28.65;13.73;;;;;;;;;;8211651;28;20041;-59
2024/01/11 03:55:11;;;;;;;29.40;14.40;;;;;;;;;;8217159;28;20113;-60
2024/01/11 03:59:11;;;;;;;23.90;12.80;;;;;;;;;;8223309;28;20471;-59
2024/01/11 04:03:11;;;;;;;23.33;12.23;;;;;;;;;;8212357;28;20551;-59
2024/01/11 04:07:11;;;;;;;27.87;12.97;;;;;;;;;;8215899;28;20017;-59
2024/01/11 04:11:12;;;;;;;23.95;12.27;;;;;;;;;;8218828;28;20333;-58
2024/01/11 04:15:13;;;;;;;29.65;12.63;;;;;;;;;;8217976;28;20101;-59
2024/01/11 04:19:13;;;;;;;26.45;12.35;;;;;;;;;;8225472;28;20109;-59
2024/01/11 04:23:13;;;;;;;26.20;12.98;;;;;;;;;;8226385;28;20056;-59
2024/01/11 04:27:14;;;;;;;29.15;13.77;;;;;;;;;;8220908;28;20550;-59
2024/01/11 04:31:14;;;;;;;27.35;12.63;;;;;;;;;;8225019;28;20039;-59
2024/01/11 04:35:14;;;;;;;27.58;12.93;;;;;;;;;;8221840;28;20026;-59
2024/01/11 04:39:15;;;;;;;28.60;12.90;;;;;;;;;;8225442;28;20037;-59
2024/01/11 04:43:15;;;;;;;28.58;13.65;;;;;;;;;;8217403;28;20037;-60
2024/01/11 04:47:15;;;;;;;32.13;13.98;;;;;;;;;;8219610;28;20322;-59
2024/01/11 04:51:16;;;;;;;29.17;14.65;;;;;;;;;;8217726;28;20699;-59
2024/01/11 04:55:16;;;;;;;22.48;12.80;;;;;;;;;;8223315;28;20521;-59
2024/01/11 04:59:16;;;;;;;24.42;13.32;;;;;;;;;;8217893;28;20033;-60
2024/01/11 05:03:17;;;;;;;26.17;13.07;;;;;;;;;;8218085;28;20388;-60
2024/01/11 05:07:17;;;;;;;27.58;14.27;;;;;;;;;;8228027;28;20038;-60
2024/01/11 05:11:21;;;;;;;30.27;14.38;;;;;;;;;;8225746;28;20104;-59
2024/01/11 05:15:21;;;;;;;25.10;13.50;;;;;;;;;;8215303;28;20112;-59
2024/01/11 05:19:22;;;;;;;25.27;13.35;;;;;;;;;;8212661;28;20033;-59
2024/01/11 05:23:22;;;;;;;28.80;14.00;;;;;;;;;;8214404;28;20281;-59
2024/01/11 05:27:22;;;;;;;25.20;13.55;;;;;;;;;;8213338;28;20042;-60
2024/01/11 05:31:22;;;;;;;34.78;15.15;;;;;;;;;;8215006;28;20120;-60
2024/01/11 05:35:24;;;;;;;28.38;14.35;;;;;;;;;;8215897;28;20037;-60
2024/01/11 05:39:24;;;;;;;29.55;14.35;;;;;;;;;;8217046;28;20879;-60
2024/01/11 05:43:24;;;;;;;28.85;13.70;;;;;;;;;;8217873;28;20070;-60
2024/01/11 05:47:24;;;;;;;28.60;14.40;;;;;;;;;;8216564;28;20045;-60
2024/01/11 05:51:25;;;;;;;30.00;15.13;;;;;;;;;;8222976;28;20034;-60
2024/01/11 05:55:25;;;;;;;31.20;13.77;;;;;;;;;;8227476;28;20104;-60
2024/01/11 05:59:26;;;;;;;32.15;15.50;;;;;;;;;;8227481;28;20116;-60
2024/01/11 06:03:26;;;;;;;30.88;14.48;;;;;;;;;;8221322;28;20129;-60
2024/01/11 06:07:26;;;;;;;25.52;13.35;;;;;;;;;;8224505;28;20038;-60
2024/01/11 06:11:26;;;;;;;27.07;14.00;;;;;;;;;;8225393;28;21033;-60
2024/01/11 06:15:26;;;;;;;27.55;12.45;;;;;;;;;;8221286;28;20736;-60
2024/01/11 06:19:26;;;;;;;30.85;14.25;;;;;;;;;;8220768;28;20033;-61
2024/01/11 06:23:27;;;;;;;29.02;14.02;;;;;;;;;;8219986;28;20501;-57
2024/01/11 06:27:27;;;;;;;35.25;13.88;;;;;;;;;;8224289;28;20086;-58
2024/01/11 06:31:27;;;;;;;27.13;13.85;;;;;;;;;;8217884;28;20046;-58
2024/01/11 06:35:27;;;;;;;27.08;13.38;;;;;;;;;;8223059;28;20019;-60
2024/01/11 06:39:27;;;;;;;27.58;14.02;;;;;;;;;;8223696;28;20113;-59
2024/01/11 06:43:28;;;;;;;29.02;14.05;;;;;;;;;;8221621;28;20104;-59
2024/01/11 06:47:28;;;;;;;30.17;14.00;;;;;;;;;;8216908;28;20607;-59
2024/01/11 06:51:28;;;;;;;26.40;14.05;;;;;;;;;;8223640;28;20073;-59
2024/01/11 06:55:28;;;;;;;26.33;12.73;;;;;;;;;;8225967;28;20025;-59
2024/01/11 06:59:28;;;;;;;27.10;12.93;;;;;;;;;;8221831;28;20276;-59
2024/01/11 07:03:30;;;;;;;28.63;13.38;;;;;;;;;;8217710;28;20452;-59
2024/01/11 07:07:30;;;;;;;23.77;13.02;;;;;;;;;;8218392;28;20033;-59
2024/01/11 07:11:31;;;;;;;25.88;12.10;;;;;;;;;;8221407;28;20033;-59
2024/01/11 07:15:32;;;;;;;23.00;12.65;;;;;;;;;;8220855;28;20034;-59
2024/01/11 07:19:32;;;;;;;23.60;12.05;;;;;;;;;;8222688;28;20033;-59
2024/01/11 07:23:32;;;;;;;26.35;12.85;;;;;;;;;;8222599;28;20169;-60
2024/01/11 07:27:32;;;;;;;29.38;13.65;;;;;;;;;;8223530;28;20455;-60
2024/01/11 07:31:32;;;;;;;27.20;13.35;;;;;;;;;;8222762;28;20567;-59
2024/01/11 07:35:33;;;;;;;26.15;12.93;;;;;;;;;;8219425;28;20057;-60
2024/01/11 07:39:33;;;;;;;27.95;13.80;;;;;;;;;;8216555;28;20390;-59
2024/01/11 07:43:35;;;;;;;24.02;13.10;;;;;;;;;;8221873;28;20115;-59
2024/01/11 07:47:36;;;;;;;25.05;12.23;;;;;;;;;;8219342;28;20204;-59
2024/01/11 07:51:36;;;;;;;29.15;13.35;;;;;;;;;;8219355;28;20026;-59
2024/01/11 07:55:37;;;;;;;24.63;13.65;;;;;;;;;;8220980;28;20038;-58
2024/01/11 07:59:38;;;;;;;31.10;14.20;;;;;;;;;;8217504;28;20053;-59
2024/01/11 08:03:38;;;;;;;27.73;14.18;;;;;;;;;;8220367;28;20510;-57
2024/01/11 08:07:38;;;;;;;25.48;13.20;;;;;;;;;;8215660;28;20022;-60
2024/01/11 08:11:38;;;;;;;24.75;13.48;;;;;;;;;;8220100;28;20505;-60
2024/01/11 08:15:39;;;;;;;30.25;13.40;;;;;;;;;;8224140;28;20077;-60
2024/01/11 08:19:39;;;;;;;28.02;13.48;;;;;;;;;;8223184;28;20041;-61
2024/01/11 08:23:44;;;;;;;30.02;13.90;;;;;;;;;;8221399;28;20268;-59
2024/01/11 08:27:44;;;;;;;;;;;;;;;;;;8220291;28;20368;-59
2024/01/11 08:31:44;;;;;;;29.63;13.60;;;;;;;;;;8217622;28;19922;-60
2024/01/11 08:35:44;;;;;;;24.92;12.82;;;;;;;;;;8225441;28;20636;-60
2024/01/11 08:39:46;;;;;;;23.27;11.65;;;;;;;;;;8226835;28;20018;-62
2024/01/11 08:43:46;;;;;;;28.92;12.98;;;;;;;;;;8222173;28;20025;-60
2024/01/11 08:47:46;;;;;;;24.05;13.43;;;;;;;;;;8222472;28;20407;-59
2024/01/11 08:51:47;;;;;;;33.17;14.95;;;;;;;;;;8217300;28;20022;-58
2024/01/11 08:55:47;;;;;;;24.90;13.38;;;;;;;;;;8222537;28;20558;-59
2024/01/11 08:59:48;;;;;;;28.10;13.52;;;;;;;;;;8219290;28;20022;-59
2024/01/11 09:03:48;;;;;;;30.83;14.60;;;;;;;;;;8218386;28;20289;-59
2024/01/11 09:07:48;;;;;;;24.38;13.48;;;;;;;;;;8213905;28;20032;-59
2024/01/11 09:11:49;;;;;;;31.20;15.73;;;;;;;;;;8224470;28;20041;-60
2024/01/11 09:15:49;;;;;;;31.40;15.48;;;;;;;;;;8217114;28;20301;-60
2024/01/11 09:19:50;;;;;;;29.50;15.15;;;;;;;;;;8223006;28;20025;-60
2024/01/11 09:23:50;;;;;;;29.15;14.48;;;;;;;;;;8219258;28;20168;-61
2024/01/11 09:27:50;;;;;;;31.45;15.00;;;;;;;;;;8218515;28;20021;-60
2024/01/11 09:31:51;;;;;;;32.75;15.93;;;;;;;;;;8218403;28;20038;-60
2024/01/11 09:35:51;;;;;;;32.58;15.85;;;;;;;;;;8231892;28;20087;-61
2024/01/11 09:39:51;;;;;;;29.45;15.45;;;;;;;;;;8229869;28;20017;-61
2024/01/11 09:43:53;;;;;;;33.33;16.38;;;;;;;;;;8223920;28;20196;-60
2024/01/11 09:47:54;;;;;;;32.47;16.52;;;;;;;;;;8218233;28;20042;-59
2024/01/11 09:51:56;;;;;;;29.25;15.02;;;;;;;;;;8214948;28;20560;-59
2024/01/11 09:55:58;;;;;;;24.08;13.70;;;;;;;;;;8216572;28;20037;-59
2024/01/11 09:59:58;;;;;;;28.00;13.05;;;;;;;;;;8216124;28;20030;-59
2024/01/11 10:03:59;;;;;;;27.27;13.75;;;;;;;;;;8217622;28;20509;-60
2024/01/11 10:07:59;;;;;;;26.80;13.15;;;;;;;;;;8212219;28;20030;-63
2024/01/11 10:11:59;;;;;;;23.77;13.15;;;;;;;;;;8214406;28;20482;-60
2024/01/11 10:16:06;;;;;;;26.83;13.05;;;;;;;;;;8214188;28;20153;-58
2024/01/11 10:20:10;;;;;;;24.33;12.70;;;;;;;;;;8213057;28;20043;-58
2024/01/11 10:24:16;;;;;;;25.45;12.55;;;;;;;;;;8218094;28;20060;-61
2024/01/11 10:28:18;;;;;;;22.98;11.55;;;;;;;;;;8216225;28;20478;-58
2024/01/11 10:32:18;;;;;;;20.77;10.90;;;;;;;;;;8214790;28;20042;-58
2024/01/11 10:36:18;;;;;;;20.63;10.10;;;;;;;;;;8217546;28;20057;-58
2024/01/11 10:40:23;;;;;;;20.33;11.07;;;;;;;;;;8217388;28;20019;-58
2024/01/11 10:44:25;;;;;;;22.40;11.38;;;;;;;;;;8217091;28;20032;-57
2024/01/11 10:48:25;;;;;;;20.50;11.18;;;;;;;;;;8214272;28;20045;-57
2024/01/11 10:52:28;;;;;;;24.05;12.25;;;;;;;;;;8214724;28;20037;-58
2024/01/11 10:56:28;;;;;;;27.65;13.02;;;;;;;;;;8215983;28;20425;-59
2024/01/11 11:00:29;;;;;;;30.45;12.82;;;;;;;;;;8216042;28;20466;-58
2024/01/11 11:04:31;;;;;;;24.52;12.90;;;;;;;;;;8214142;28;20738;-58
2024/01/11 11:08:31;;;;;;;23.52;13.02;;;;;;;;;;8215021;28;20284;-58
2024/01/11 11:12:32;;;;;;;24.95;12.63;;;;;;;;;;8214982;28;20034;-58
2024/01/11 11:16:33;;;;;;;25.85;13.60;;;;;;;;;;8213793;28;20509;-58
2024/01/11 11:20:33;;;;;;;28.65;13.80;;;;;;;;;;8212065;28;20486;-58
2024/01/11 11:24:34;;;;;;;26.23;13.73;;;;;;;;;;8220248;28;20281;-58
2024/01/11 11:28:37;;;;;;;26.15;12.75;;;;;;;;;;8212329;28;20057;-58
2024/01/11 11:32:38;;;;;;;26.83;14.20;;;;;;;;;;8213703;28;20038;-57
2024/01/11 11:36:39;;;;;;;25.92;13.10;;;;;;;;;;8214645;28;20026;-58
2024/01/11 11:40:40;;;;;;;26.00;13.77;;;;;;;;;;8214688;28;20018;-59
2024/01/11 11:44:50;;;;;;;25.23;13.13;;;;;;;;;;8219205;28;20041;-59
2024/01/11 11:48:52;;;;;;;24.00;12.90;;;;;;;;;;8216911;28;20129;-60
2024/01/11 11:52:56;;;;;;;21.00;11.23;;;;;;;;;;8219479;28;20042;-59
2024/01/11 11:56:57;;;;;;;32.55;13.55;;;;;;;;;;8215151;28;20033;-60
2024/01/11 12:00:57;;;;;;;21.55;12.05;;;;;;;;;;8214152;28;20030;-59
2024/01/11 12:04:57;;;;;;;20.75;11.30;;;;;;;;;;8221972;28;20351;-59
2024/01/11 12:08:58;;;;;;;23.95;12.80;;;;;;;;;;8222232;28;20513;-60
2024/01/11 12:12:58;;;;;;;23.70;12.40;;;;;;;;;;8223830;28;20288;-60
2024/01/11 12:16:58;;;;;;;24.83;11.18;;;;;;;;;;8214342;28;20601;-58
2024/01/11 12:20:59;;;;;;;20.75;10.85;;;;;;;;;;8214407;28;20022;-58
2024/01/11 12:24:59;;;;;;;18.30;10.50;;;;;;;;;;8215709;28;20026;-59
2024/01/11 12:29:00;;;;;;;18.10;10.05;;;;;;;;;;8214408;28;20026;-58
2024/01/11 12:33:01;;;;;;;19.70;10.18;;;;;;;;;;8219462;28;20544;-58
2024/01/11 12:37:05;;;;;;;22.88;10.15;;;;;;;;;;8226100;28;20530;-59
2024/01/11 12:41:05;;;;;;;18.33;9.30;;;;;;;;;;8220607;28;20022;-58
2024/01/11 12:45:06;;;;;;;18.08;9.88;;;;;;;;;;8219611;28;20567;-58
2024/01/11 12:49:09;;;;;;;18.40;9.50;;;;;;;;;;8226473;28;20513;-59
2024/01/11 12:53:18;;;;;;;20.55;10.10;;;;;;;;;;8218293;28;21195;-59
2024/01/11 12:57:22;;;;;;;17.33;10.38;;;;;;;;;;8241618;28;20055;-60
2024/01/11 13:01:22;;;;;;;19.63;11.07;;;;;;;;;;8244943;28;20038;-60
2024/01/11 13:05:22;;;;;;;23.07;10.73;;;;;;;;;;8232807;28;20026;-58
2024/01/11 13:09:23;;;;;;;17.63;10.02;;;;;;;;;;8214894;28;20989;-59
2024/01/11 13:13:23;;;;;;;18.42;9.18;;;;;;;;;;8218704;28;20025;-58
2024/01/11 13:17:23;;;;;;;21.08;10.98;;;;;;;;;;8208775;28;20374;-60
2024/01/11 13:21:23;;;;;;;18.23;9.93;;;;;;;;;;8209587;28;20018;-60
2024/01/11 13:25:24;;;;;;;22.30;11.05;;;;;;;;;;8227950;28;20152;-60
2024/01/11 13:29:25;;;;;;;19.17;10.02;;;;;;;;;;8239335;28;20101;-58
2024/01/11 13:33:25;;;;;;;21.05;10.80;;;;;;;;;;8238759;28;20049;-60
2024/01/11 13:37:25;;;;;;;18.10;10.75;;;;;;;;;;8240680;28;20609;-59
2024/01/11 13:41:26;;;;;;;21.60;10.77;;;;;;;;;;8239939;28;20757;-59
2024/01/11 13:45:26;;;;;;;21.30;11.30;;;;;;;;;;8243552;28;20057;-59
2024/01/11 13:49:28;;;;;;;21.27;10.27;;;;;;;;;;8237471;28;20570;-60
2024/01/11 13:53:28;;;;;;;19.77;9.65;;;;;;;;;;8239989;28;20124;-60
2024/01/11 13:57:28;;;;;;;17.85;9.20;;;;;;;;;;8238635;28;20018;-60
2024/01/11 14:01:29;;;;;;;19.50;9.35;;;;;;;;;;8236047;28;20415;-60
2024/01/11 14:05:29;;;;;;;20.20;10.98;;;;;;;;;;8232825;28;20061;-60
2024/01/11 14:09:31;;;;;;;17.15;10.52;;;;;;;;;;8234870;28;20030;-59
2024/01/11 14:13:31;;;;;;;19.45;11.05;;;;;;;;;;8241937;28;20026;-60
2024/01/11 14:17:32;;;;;;;16.95;10.02;;;;;;;;;;8224732;28;21571;-60
2024/01/11 14:21:32;;;;;;;19.23;9.55;;;;;;;;;;8224918;28;20026;-58
2024/01/11 14:25:32;;;;;;;17.50;9.30;;;;;;;;;;8219946;28;20034;-58
2024/01/11 14:29:33;;;;;;;17.83;9.65;;;;;;;;;;8220373;28;20030;-58
2024/01/11 14:33:36;;;;;;;16.73;9.20;;;;;;;;;;8222092;28;20045;-59
2024/01/11 14:37:37;;;;;;;15.45;8.75;;;;;;;;;;8217015;28;20029;-59
2024/01/11 14:41:37;;;;;;;25.45;9.52;;;;;;;;;;8219240;28;20065;-58
2024/01/11 14:45:38;;;;;;;15.82;8.77;;;;;;;;;;8228329;28;20097;-58
2024/01/11 14:49:38;;;;;;;16.83;9.40;;;;;;;;;;8220737;28;20026;-58
2024/01/11 14:53:38;;;;;;;15.30;9.57;;;;;;;;;;8220717;28;20387;-58
2024/01/11 14:57:39;;;;;;;18.38;10.05;;;;;;;;;;8224787;28;20056;-59
2024/01/11 15:01:39;;;;;;;18.42;9.52;;;;;;;;;;8218550;28;20037;-59
2024/01/11 15:05:40;;;;;;;27.98;14.18;;;;;;;;;;8217985;28;20017;-58
2024/01/11 15:09:40;;;;;;;19.27;10.98;;;;;;;;;;8217242;28;20106;-59
2024/01/11 15:13:40;;;;;;;20.40;10.27;;;;;;;;;;8218377;28;21031;-58
2024/01/11 15:17:40;;;;;;;19.77;10.68;;;;;;;;;;8216698;28;20037;-59
2024/01/11 15:21:40;;;;;;;27.13;11.73;;;;;;;;;;8217879;28;20026;-59
2024/01/11 15:25:42;;;;;;;24.83;12.43;;;;;;;;;;8219929;28;20141;-60
2024/01/11 15:29:42;;;;;;;24.38;12.32;;;;;;;;;;8219849;28;20269;-59
2024/01/11 15:33:42;;;;;;;28.13;13.77;;;;;;;;;;8219908;28;20041;-59
2024/01/11 15:37:43;;;;;;;28.77;13.75;;;;;;;;;;8217744;28;20280;-58
2024/01/11 15:41:46;;;;;;;28.92;14.35;;;;;;;;;;8217486;28;20554;-58
2024/01/11 15:45:48;;;;;;;28.55;14.32;;;;;;;;;;8236434;28;20101;-58
2024/01/11 15:49:50;;;;;;;29.88;13.82;;;;;;;;;;8255376;28;20038;-59
2024/01/11 15:53:51;;;;;;;24.90;12.63;;;;;;;;;;8253966;28;20025;-59
2024/01/11 15:57:54;;;;;;;21.70;11.98;;;;;;;;;;8255657;28;20029;-59
2024/01/11 16:01:54;;;;;;;23.27;12.52;;;;;;;;;;8251562;28;20041;-59
2024/01/11 16:05:54;;;;;;;20.30;11.20;;;;;;;;;;8259428;28;20018;-57
2024/01/11 16:09:55;;;;;;;32.28;17.00;;;;;;;;;;8258145;28;20033;-59
2024/01/11 16:13:55;;;;;;;31.00;16.33;;;;;;;;;;8258939;28;20045;-59
2024/01/11 16:17:55;;;;;;;28.93;15.40;;;;;;;;;;8258498;28;20100;-57
2024/01/11 16:21:56;;;;;;;25.98;13.75;;;;;;;;;;8254014;28;20280;-59
2024/01/11 16:25:58;;;;;;;22.55;13.25;;;;;;;;;;8240755;28;20359;-60
2024/01/11 16:29:58;;;;;;;25.17;12.48;;;;;;;;;;8220338;28;20038;-59
2024/01/11 16:33:59;;;;;;;22.87;10.93;;;;;;;;;;8232766;28;20042;-58
2024/01/11 16:38:00;;;;;;;20.58;11.15;;;;;;;;;;8254904;28;20273;-59
2024/01/11 16:42:00;;;;;;;21.55;10.98;;;;;;;;;;8259656;28;20186;-58
2024/01/11 16:46:01;;;;;;;20.27;10.85;;;;;;;;;;8237650;28;20049;-60
2024/01/11 16:50:08;;;;;;;25.25;12.27;;;;;;;;;;8224976;28;20595;-58
2024/01/11 16:54:08;;;;;;;21.33;10.18;;;;;;;;;;8227327;28;20490;-59
2024/01/11 16:58:10;;;;;;;17.52;9.43;;;;;;;;;;8233225;28;20426;-58
2024/01/11 17:02:10;;;;;;;17.00;9.20;;;;;;;;;;8227624;28;20169;-59
2024/01/11 17:06:11;;;;;;;17.57;8.70;;;;;;;;;;8229767;28;20049;-59
2024/01/11 17:10:11;;;;;;;25.35;11.15;;;;;;;;;;8225697;28;20336;-59
2024/01/11 17:14:11;;;;;;;21.63;10.52;;;;;;;;;;8230214;28;20015;-59
2024/01/11 17:18:12;;;;;;;19.45;10.10;;;;;;;;;;8226830;28;20133;-59
2024/01/11 17:22:12;;;;;;;18.73;10.48;;;;;;;;;;8226131;28;20029;-59
2024/01/11 17:26:12;;;;;;;19.55;10.77;;;;;;;;;;8227189;28;20136;-59
2024/01/11 17:30:12;;;;;;;22.63;11.60;;;;;;;;;;8225549;28;20518;-57
2024/01/11 17:34:13;;;;;;;18.80;9.75;;;;;;;;;;8226931;28;20072;-58
2024/01/11 17:38:13;;;;;;;26.23;9.77;;;;;;;;;;8227943;28;20030;-58
2024/01/11 17:42:13;;;;;;;21.58;9.18;;;;;;;;;;8226444;28;20026;-58
2024/01/11 17:46:21;;;;;;;15.45;8.50;;;;;;;;;;8227813;28;20165;-57
2024/01/11 17:50:21;;;;;;;17.35;9.00;;;;;;;;;;8226784;28;20020;-58
2024/01/11 17:54:23;;;;;;;15.15;7.88;;;;;;;;;;8226358;28;20030;-58
2024/01/11 17:58:23;;;;;;;15.77;8.38;;;;;;;;;;8225489;28;20258;-58
2024/01/11 18:02:23;;;;;;;17.25;8.90;;;;;;;;;;8228653;28;20136;-58
2024/01/11 18:06:23;;;;;;;17.60;8.43;;;;;;;;;;8227923;28;20060;-58
2024/01/11 18:10:24;;;;;;;17.60;9.23;;;;;;;;;;8230332;28;20033;-58
2024/01/11 18:14:24;;;;;;;16.83;9.20;;;;;;;;;;8229304;28;20475;-58
2024/01/11 18:18:24;;;;;;;18.52;9.95;;;;;;;;;;8224578;28;20137;-58
2024/01/11 18:22:26;;;;;;;19.85;10.07;;;;;;;;;;8219045;28;20478;-57
2024/01/11 18:26:26;;;;;;;15.63;8.85;;;;;;;;;;8217366;28;21392;-58
2024/01/11 18:30:26;;;;;;;19.63;9.93;;;;;;;;;;8222950;28;20153;-58
2024/01/11 18:34:26;;;;;;;15.23;8.45;;;;;;;;;;8216028;28;21068;-58
2024/01/11 18:38:27;;;;;;;17.15;9.63;;;;;;;;;;8214106;28;20382;-59
2024/01/11 18:42:27;;;;;;;19.38;9.95;;;;;;;;;;8214195;28;20030;-58
2024/01/11 18:46:27;;;;;;;23.45;10.15;;;;;;;;;;8216243;28;20038;-59
2024/01/11 18:50:27;;;;;;;18.95;9.77;;;;;;;;;;8215887;28;21277;-58
2024/01/11 18:54:28;;;;;;;14.57;8.27;;;;;;;;;;8212430;28;20026;-58
2024/01/11 18:58:29;;;;;;;21.88;10.38;;;;;;;;;;8215469;28;20459;-58
2024/01/11 19:02:29;;;;;;;17.60;9.63;;;;;;;;;;8215434;28;20593;-59
2024/01/11 19:06:30;;;;;;;21.05;9.98;;;;;;;;;;8216003;28;20547;-59
2024/01/11 19:10:30;;;;;;;20.52;10.55;;;;;;;;;;8214216;28;21763;-61
2024/01/11 19:14:30;;;;;;;18.65;9.70;;;;;;;;;;8213818;28;20707;-59
2024/01/11 19:18:30;;;;;;;18.52;10.20;;;;;;;;;;8229357;28;20584;-59
2024/01/11 19:22:30;;;;;;;25.23;13.00;;;;;;;;;;8238942;28;20384;-60
2024/01/11 19:26:30;;;;;;;22.47;12.60;;;;;;;;;;8241517;28;20026;-59
2024/01/11 19:30:31;;;;;;;21.95;11.55;;;;;;;;;;8237947;28;20731;-60
2024/01/11 19:34:31;;;;;;;20.35;10.98;;;;;;;;;;8237421;28;20030;-59
2024/01/11 19:38:34;;;;;;;18.58;9.40;;;;;;;;;;8246028;28;20042;-58
2024/01/11 19:42:34;;;;;;;17.83;10.40;;;;;;;;;;8251425;28;20050;-59
2024/01/11 19:46:34;;;;;;;21.02;10.85;;;;;;;;;;8246136;28;20553;-59
2024/01/11 19:50:34;;;;;;;19.45;10.35;;;;;;;;;;8247489;28;20077;-59
2024/01/11 19:54:35;;;;;;;21.33;10.55;;;;;;;;;;8248967;28;20487;-59
2024/01/11 19:58:36;;;;;;;20.98;10.80;;;;;;;;;;8230793;28;20022;-59
2024/01/11 20:02:37;;;;;;;21.05;10.88;;;;;;;;;;8220686;28;20038;-58
2024/01/11 20:06:37;;;;;;;20.42;11.52;;;;;;;;;;8221136;28;20026;-59
2024/01/11 20:10:38;;;;;;;22.80;11.30;;;;;;;;;;8210355;28;20084;-59
2024/01/11 20:14:39;;;;;;;18.63;11.15;;;;;;;;;;8217219;28;20034;-57
2024/01/11 20:18:39;;;;;;;23.30;12.25;;;;;;;;;;8237127;28;20614;-59
2024/01/11 20:22:40;;;;;;;25.00;11.93;;;;;;;;;;8250623;28;20551;-59
2024/01/11 20:26:40;;;;;;;23.52;12.07;;;;;;;;;;8245912;28;20580;-59
2024/01/11 20:30:40;;;;;;;19.48;10.95;;;;;;;;;;8218392;28;20450;-59
2024/01/11 20:34:40;;;;;;;19.95;11.00;;;;;;;;;;8217416;28;20025;-59
2024/01/11 20:38:40;;;;;;;22.83;10.90;;;;;;;;;;8218992;28;20027;-59
2024/01/11 20:42:40;;;;;;;22.90;11.50;;;;;;;;;;8212620;28;20018;-60
2024/01/11 20:46:41;;;;;;;21.70;11.63;;;;;;;;;;8207927;28;20042;-59
2024/01/11 20:50:41;;;;;;;24.10;13.20;;;;;;;;;;8205807;28;20100;-59
2024/01/11 20:54:41;;;;;;;23.52;12.05;;;;;;;;;;8204439;28;20820;-59
2024/01/11 20:58:42;;;;;;;24.00;11.98;;;;;;;;;;8209438;28;20037;-60
2024/01/11 21:02:42;;;;;;;23.23;13.13;;;;;;;;;;8206584;28;20041;-59
2024/01/11 21:06:43;;;;;;;23.40;12.27;;;;;;;;;;8208558;28;20034;-59
2024/01/11 21:10:44;;;;;;;23.02;11.93;;;;;;;;;;8208173;28;20035;-59
2024/01/11 21:14:45;;;;;;;23.67;13.65;;;;;;;;;;8208450;28;20041;-59
2024/01/11 21:18:50;;;;;;;22.75;13.05;;;;;;;;;;8227978;28;20550;-60
2024/01/11 21:22:51;;;;;;;27.17;13.88;;;;;;;;;;8244645;28;20018;-60
2024/01/11 21:26:51;;;;;;;24.08;12.65;;;;;;;;;;8242792;28;20026;-60
2024/01/11 21:30:51;;;;;;;25.20;12.65;;;;;;;;;;8209277;28;20064;-60
2024/01/11 21:34:51;;;;;;;24.52;12.98;;;;;;;;;;8209554;28;20021;-60
2024/01/11 21:38:54;;;;;;;23.25;13.18;;;;;;;;;;8209711;28;21035;-60
2024/01/11 21:42:54;;;;;;;22.83;12.90;;;;;;;;;;8209975;28;20018;-60
2024/01/11 21:46:54;;;;;;;25.30;12.33;;;;;;;;;;8210183;28;20042;-60
2024/01/11 21:50:54;;;;;;;23.63;12.75;;;;;;;;;;8209514;28;20327;-60
2024/01/11 21:54:55;;;;;;;25.15;12.80;;;;;;;;;;8207988;28;20529;-60
2024/01/11 21:58:55;;;;;;;27.30;13.95;;;;;;;;;;8210169;28;20017;-60
2024/01/11 22:02:55;;;;;;;25.85;13.02;;;;;;;;;;8210468;28;20519;-60
2024/01/11 22:06:57;;;;;;;23.17;12.82;;;;;;;;;;8214722;28;20026;-60
2024/01/11 22:10:58;;;;;;;25.58;13.65;;;;;;;;;;8215527;28;20018;-60
2024/01/11 22:14:58;;;;;;;25.23;13.23;;;;;;;;;;8214520;28;20128;-60
2024/01/11 22:18:58;;;;;;;28.95;15.20;;;;;;;;;;8215591;28;20431;-60
2024/01/11 22:22:58;;;;;;;23.70;13.90;;;;;;;;;;8215965;28;20015;-60
2024/01/11 22:26:59;;;;;;;31.83;14.48;;;;;;;;;;8216734;28;20537;-60
2024/01/11 22:30:59;;;;;;;30.98;15.05;;;;;;;;;;8211123;28;20232;-60
2024/01/11 22:34:59;;;;;;;29.73;15.40;;;;;;;;;;8219411;28;20022;-60
2024/01/11 22:38:59;;;;;;;30.77;15.57;;;;;;;;;;8215095;28;20383;-61
2024/01/11 22:43:00;;;;;;;31.45;15.68;;;;;;;;;;8213641;28;20220;-59
2024/01/11 22:47:00;;;;;;;30.88;15.32;;;;;;;;;;8208604;28;20129;-58
2024/01/11 22:51:00;;;;;;;28.88;15.80;;;;;;;;;;8211061;28;20137;-61
2024/01/11 22:55:00;;;;;;;33.47;17.08;;;;;;;;;;8208002;28;20056;-60
2024/01/11 22:59:00;;;;;;;27.60;14.90;;;;;;;;;;8205565;28;20439;-60
2024/01/11 23:03:00;;;;;;;33.43;15.73;;;;;;;;;;8206266;28;20374;-60
2024/01/11 23:07:01;;;;;;;34.90;16.38;;;;;;;;;;8203364;28;20376;-60
2024/01/11 23:11:02;;;;;;;30.95;15.40;;;;;;;;;;8211166;28;20049;-60
2024/01/11 23:15:03;;;;;;;25.55;14.07;;;;;;;;;;8208387;28;20479;-60
2024/01/11 23:19:03;;;;;;;25.88;13.77;;;;;;;;;;8211713;28;20025;-60
2024/01/11 23:23:03;;;;;;;24.85;14.02;;;;;;;;;;8212528;28;20029;-60